sensor_id;sensor_type;location;lat;lon;timestamp;temperature;humidity
53904;DHT22;39812;52.430;16.936;2022-10-16T00:01:46;12.20;99.90
53904;DHT22;39812;52.430;16.936;2022-10-16T00:04:12;12.30;99.90
53904;DHT22;39812;52.430;16.936;2022-10-16T00:06:38;12.40;99.90
53904;DHT22;39812;52.430;16.936;2022-10-16T00:09:03;12.50;99.90
53904;DHT22;39812;52.430;16.936;2022-10-16T00:11:32;12.60;99.90
53904;DHT22;39812;52.430;16.936;2022-10-16T00:14:05;12.50;99.90
53904;DHT22;39812;52.430;16.936;2022-10-16T00:16:31;12.60;99.90
53904;DHT22;39812;52.430;16.936;2022-10-16T00:18:57;12.60;99.90
53904;DHT22;39812;52.430;16.936;2022-10-16T00:21:25;12.70;99.90
53904;DHT22;39812;52.430;16.936;2022-10-16T00:24:04;12.70;99.90
53904;DHT22;39812;52.430;16.936;2022-10-16T00:26:31;12.70;99.90
53904;DHT22;39812;52.430;16.936;2022-10-16T00:28:57;12.80;99.90
53904;DHT22;39812;52.430;16.936;2022-10-16T00:31:22;12.90;99.90
53904;DHT22;39812;52.430;16.936;2022-10-16T00:33:48;13.00;99.90
53904;DHT22;39812;52.430;16.936;2022-10-16T00:36:17;13.00;99.90
53904;DHT22;39812;52.430;16.936;2022-10-16T00:38:43;13.10;99.90
53904;DHT22;39812;52.430;16.936;2022-10-16T00:41:11;13.10;99.90
53904;DHT22;39812;52.430;16.936;2022-10-16T00:46:54;13.20;99.90
53904;DHT22;39812;52.430;16.936;2022-10-16T00:49:20;13.30;99.90
53904;DHT22;39812;52.430;16.936;2022-10-16T00:51:51;13.30;99.90
53904;DHT22;39812;52.430;16.936;2022-10-16T00:54:26;13.40;99.90
53904;DHT22;39812;52.430;16.936;2022-10-16T00:56:54;13.40;99.90
53904;DHT22;39812;52.430;16.936;2022-10-16T00:59:25;13.40;99.90
53904;DHT22;39812;52.430;16.936;2022-10-16T01:01:52;13.40;99.90
53904;DHT22;39812;52.430;16.936;2022-10-16T01:04:18;13.40;99.90
53904;DHT22;39812;52.430;16.936;2022-10-16T01:09:26;13.50;99.90
53904;DHT22;39812;52.430;16.936;2022-10-16T01:12:07;13.50;99.90
53904;DHT22;39812;52.430;16.936;2022-10-16T01:14:48;13.50;99.90
53904;DHT22;39812;52.430;16.936;2022-10-16T01:17:34;13.50;99.90
53904;DHT22;39812;52.430;16.936;2022-10-16T01:20:10;13.60;99.90
53904;DHT22;39812;52.430;16.936;2022-10-16T01:22:58;13.60;99.90
53904;DHT22;39812;52.430;16.936;2022-10-16T01:28:16;13.60;99.90
53904;DHT22;39812;52.430;16.936;2022-10-16T01:30:45;13.60;99.90
53904;DHT22;39812;52.430;16.936;2022-10-16T01:33:21;13.60;99.90
53904;DHT22;39812;52.430;16.936;2022-10-16T01:35:53;13.70;99.90
53904;DHT22;39812;52.430;16.936;2022-10-16T01:38:35;13.70;99.90
53904;DHT22;39812;52.430;16.936;2022-10-16T01:41:10;13.70;99.90
53904;DHT22;39812;52.430;16.936;2022-10-16T01:43:45;13.80;99.90
53904;DHT22;39812;52.430;16.936;2022-10-16T01:46:13;13.80;99.90
53904;DHT22;39812;52.430;16.936;2022-10-16T01:48:41;13.80;99.90
53904;DHT22;39812;52.430;16.936;2022-10-16T01:51:09;13.80;99.90
53904;DHT22;39812;52.430;16.936;2022-10-16T01:53:36;13.80;99.90
53904;DHT22;39812;52.430;16.936;2022-10-16T01:56:04;13.80;99.90
53904;DHT22;39812;52.430;16.936;2022-10-16T01:58:35;13.90;99.90
53904;DHT22;39812;52.430;16.936;2022-10-16T02:01:04;13.90;99.90
53904;DHT22;39812;52.430;16.936;2022-10-16T02:03:34;13.90;99.90
53904;DHT22;39812;52.430;16.936;2022-10-16T02:06:00;13.90;99.90
53904;DHT22;39812;52.430;16.936;2022-10-16T02:08:28;14.00;99.90
53904;DHT22;39812;52.430;16.936;2022-10-16T02:10:56;14.00;99.90
53904;DHT22;39812;52.430;16.936;2022-10-16T02:13:22;14.00;99.90
53904;DHT22;39812;52.430;16.936;2022-10-16T02:15:48;14.00;99.90
53904;DHT22;39812;52.430;16.936;2022-10-16T02:18:14;14.00;99.90
53904;DHT22;39812;52.430;16.936;2022-10-16T02:20:54;14.10;99.90
53904;DHT22;39812;52.430;16.936;2022-10-16T02:26:15;14.10;99.90
53904;DHT22;39812;52.430;16.936;2022-10-16T02:28:46;14.10;99.90
53904;DHT22;39812;52.430;16.936;2022-10-16T02:31:16;14.20;99.90
53904;DHT22;39812;52.430;16.936;2022-10-16T02:33:45;14.20;99.90
53904;DHT22;39812;52.430;16.936;2022-10-16T02:36:11;14.30;99.90
53904;DHT22;39812;52.430;16.936;2022-10-16T02:38:38;14.30;99.90
53904;DHT22;39812;52.430;16.936;2022-10-16T02:41:05;14.30;99.90
53904;DHT22;39812;52.430;16.936;2022-10-16T02:43:30;14.40;99.90
53904;DHT22;39812;52.430;16.936;2022-10-16T02:45:56;14.30;99.90
53904;DHT22;39812;52.430;16.936;2022-10-16T02:48:21;14.30;99.90
53904;DHT22;39812;52.430;16.936;2022-10-16T02:50:47;14.30;99.90
53904;DHT22;39812;52.430;16.936;2022-10-16T02:53:12;14.30;99.90
53904;DHT22;39812;52.430;16.936;2022-10-16T02:55:38;14.30;99.90
53904;DHT22;39812;52.430;16.936;2022-10-16T02:58:03;14.30;99.90
53904;DHT22;39812;52.430;16.936;2022-10-16T03:00:29;14.30;99.90
53904;DHT22;39812;52.430;16.936;2022-10-16T03:02:54;14.30;99.90
53904;DHT22;39812;52.430;16.936;2022-10-16T03:05:20;14.30;99.90
53904;DHT22;39812;52.430;16.936;2022-10-16T03:07:45;14.30;99.90
53904;DHT22;39812;52.430;16.936;2022-10-16T03:10:11;14.30;99.90
53904;DHT22;39812;52.430;16.936;2022-10-16T03:12:36;14.30;99.90
53904;DHT22;39812;52.430;16.936;2022-10-16T03:15:02;14.30;99.90
53904;DHT22;39812;52.430;16.936;2022-10-16T03:17:28;14.30;99.90
53904;DHT22;39812;52.430;16.936;2022-10-16T03:19:53;14.30;99.90
53904;DHT22;39812;52.430;16.936;2022-10-16T03:22:18;14.30;99.90
53904;DHT22;39812;52.430;16.936;2022-10-16T03:24:44;14.20;99.90
53904;DHT22;39812;52.430;16.936;2022-10-16T03:27:09;14.10;99.90
53904;DHT22;39812;52.430;16.936;2022-10-16T03:29:35;14.10;99.90
53904;DHT22;39812;52.430;16.936;2022-10-16T03:32:01;14.00;99.90
53904;DHT22;39812;52.430;16.936;2022-10-16T03:34:27;14.00;99.90
53904;DHT22;39812;52.430;16.936;2022-10-16T03:36:53;13.90;99.90
53904;DHT22;39812;52.430;16.936;2022-10-16T03:39:18;13.90;99.90
53904;DHT22;39812;52.430;16.936;2022-10-16T03:41:44;14.00;99.90
53904;DHT22;39812;52.430;16.936;2022-10-16T03:44:11;13.90;99.90
53904;DHT22;39812;52.430;16.936;2022-10-16T03:46:37;13.90;99.90
53904;DHT22;39812;52.430;16.936;2022-10-16T03:49:02;14.00;99.90
53904;DHT22;39812;52.430;16.936;2022-10-16T03:51:28;14.10;99.90
53904;DHT22;39812;52.430;16.936;2022-10-16T03:53:53;14.10;99.90
53904;DHT22;39812;52.430;16.936;2022-10-16T03:56:18;14.10;99.90
53904;DHT22;39812;52.430;16.936;2022-10-16T03:58:44;14.10;99.90
53904;DHT22;39812;52.430;16.936;2022-10-16T04:01:09;14.20;99.90
53904;DHT22;39812;52.430;16.936;2022-10-16T04:03:35;14.20;99.90
53904;DHT22;39812;52.430;16.936;2022-10-16T04:06:00;14.30;99.90
53904;DHT22;39812;52.430;16.936;2022-10-16T04:08:26;14.30;99.90
53904;DHT22;39812;52.430;16.936;2022-10-16T04:10:51;14.30;99.90
53904;DHT22;39812;52.430;16.936;2022-10-16T04:13:17;14.30;99.90
53904;DHT22;39812;52.430;16.936;2022-10-16T04:15:42;14.30;99.90
53904;DHT22;39812;52.430;16.936;2022-10-16T04:18:09;14.30;99.90
53904;DHT22;39812;52.430;16.936;2022-10-16T04:20:35;14.40;99.90
53904;DHT22;39812;52.430;16.936;2022-10-16T04:23:00;14.50;99.90
53904;DHT22;39812;52.430;16.936;2022-10-16T04:25:26;14.30;99.90
53904;DHT22;39812;52.430;16.936;2022-10-16T04:27:53;14.40;99.90
53904;DHT22;39812;52.430;16.936;2022-10-16T04:30:19;14.40;99.90
53904;DHT22;39812;52.430;16.936;2022-10-16T04:32:48;14.40;99.90
53904;DHT22;39812;52.430;16.936;2022-10-16T04:35:15;14.40;99.90
53904;DHT22;39812;52.430;16.936;2022-10-16T04:37:40;14.40;99.90
53904;DHT22;39812;52.430;16.936;2022-10-16T04:40:06;14.40;99.90
53904;DHT22;39812;52.430;16.936;2022-10-16T04:42:32;14.40;99.90
53904;DHT22;39812;52.430;16.936;2022-10-16T04:44:57;14.40;99.90
53904;DHT22;39812;52.430;16.936;2022-10-16T04:47:23;14.40;99.90
53904;DHT22;39812;52.430;16.936;2022-10-16T04:49:48;14.50;99.90
53904;DHT22;39812;52.430;16.936;2022-10-16T04:52:14;14.50;99.90
53904;DHT22;39812;52.430;16.936;2022-10-16T04:54:40;14.50;99.90
53904;DHT22;39812;52.430;16.936;2022-10-16T04:57:06;14.50;99.90
53904;DHT22;39812;52.430;16.936;2022-10-16T04:59:31;14.40;99.90
53904;DHT22;39812;52.430;16.936;2022-10-16T05:01:57;14.40;99.90
53904;DHT22;39812;52.430;16.936;2022-10-16T05:04:22;14.40;99.90
53904;DHT22;39812;52.430;16.936;2022-10-16T05:06:48;14.40;99.90
53904;DHT22;39812;52.430;16.936;2022-10-16T05:09:13;14.40;99.90
53904;DHT22;39812;52.430;16.936;2022-10-16T05:11:39;14.40;99.90
53904;DHT22;39812;52.430;16.936;2022-10-16T05:14:04;14.40;99.90
53904;DHT22;39812;52.430;16.936;2022-10-16T05:16:30;14.30;99.90
53904;DHT22;39812;52.430;16.936;2022-10-16T05:18:56;14.20;99.90
53904;DHT22;39812;52.430;16.936;2022-10-16T05:21:22;14.20;99.90
53904;DHT22;39812;52.430;16.936;2022-10-16T05:23:47;14.20;99.90
53904;DHT22;39812;52.430;16.936;2022-10-16T05:26:13;14.20;99.90
53904;DHT22;39812;52.430;16.936;2022-10-16T05:28:38;14.20;99.90
53904;DHT22;39812;52.430;16.936;2022-10-16T05:31:05;14.30;99.90
53904;DHT22;39812;52.430;16.936;2022-10-16T05:33:32;14.30;99.90
53904;DHT22;39812;52.430;16.936;2022-10-16T05:36:01;14.40;99.90
53904;DHT22;39812;52.430;16.936;2022-10-16T05:38:27;14.40;99.90
53904;DHT22;39812;52.430;16.936;2022-10-16T05:40:53;14.40;99.90
53904;DHT22;39812;52.430;16.936;2022-10-16T05:43:19;14.40;99.90
53904;DHT22;39812;52.430;16.936;2022-10-16T05:45:56;14.40;99.90
53904;DHT22;39812;52.430;16.936;2022-10-16T05:48:22;14.30;99.90
53904;DHT22;39812;52.430;16.936;2022-10-16T05:50:48;14.30;99.90
53904;DHT22;39812;52.430;16.936;2022-10-16T05:53:13;14.40;99.90
53904;DHT22;39812;52.430;16.936;2022-10-16T05:55:39;14.30;99.90
53904;DHT22;39812;52.430;16.936;2022-10-16T05:58:04;14.30;99.90
53904;DHT22;39812;52.430;16.936;2022-10-16T06:00:30;14.20;99.90
53904;DHT22;39812;52.430;16.936;2022-10-16T06:02:55;14.10;99.90
53904;DHT22;39812;52.430;16.936;2022-10-16T06:05:21;14.10;99.90
53904;DHT22;39812;52.430;16.936;2022-10-16T06:07:46;14.20;99.90
53904;DHT22;39812;52.430;16.936;2022-10-16T06:10:11;14.30;99.90
53904;DHT22;39812;52.430;16.936;2022-10-16T06:12:37;14.20;99.90
53904;DHT22;39812;52.430;16.936;2022-10-16T06:15:03;14.10;99.90
53904;DHT22;39812;52.430;16.936;2022-10-16T06:17:28;14.10;99.90
53904;DHT22;39812;52.430;16.936;2022-10-16T06:19:54;14.10;99.90
53904;DHT22;39812;52.430;16.936;2022-10-16T06:22:19;14.20;99.90
53904;DHT22;39812;52.430;16.936;2022-10-16T06:24:45;14.20;99.90
53904;DHT22;39812;52.430;16.936;2022-10-16T06:27:11;14.20;99.90
53904;DHT22;39812;52.430;16.936;2022-10-16T06:29:37;14.20;99.90
53904;DHT22;39812;52.430;16.936;2022-10-16T06:32:02;14.20;99.90
53904;DHT22;39812;52.430;16.936;2022-10-16T06:34:28;14.20;99.90
53904;DHT22;39812;52.430;16.936;2022-10-16T06:36:53;14.20;99.90
53904;DHT22;39812;52.430;16.936;2022-10-16T06:39:19;14.30;99.90
53904;DHT22;39812;52.430;16.936;2022-10-16T06:41:44;14.30;99.90
53904;DHT22;39812;52.430;16.936;2022-10-16T06:44:09;14.40;99.90
53904;DHT22;39812;52.430;16.936;2022-10-16T06:46:35;14.50;99.90
53904;DHT22;39812;52.430;16.936;2022-10-16T06:49:00;14.60;99.90
53904;DHT22;39812;52.430;16.936;2022-10-16T06:51:26;14.90;99.90
53904;DHT22;39812;52.430;16.936;2022-10-16T06:53:55;15.10;99.90
53904;DHT22;39812;52.430;16.936;2022-10-16T06:56:26;15.50;99.90
53904;DHT22;39812;52.430;16.936;2022-10-16T06:58:53;15.70;99.90
53904;DHT22;39812;52.430;16.936;2022-10-16T07:01:20;15.90;99.90
53904;DHT22;39812;52.430;16.936;2022-10-16T07:03:46;15.80;99.90
53904;DHT22;39812;52.430;16.936;2022-10-16T07:06:14;15.90;99.90
53904;DHT22;39812;52.430;16.936;2022-10-16T07:08:42;15.90;99.90
53904;DHT22;39812;52.430;16.936;2022-10-16T07:11:10;16.00;99.90
53904;DHT22;39812;52.430;16.936;2022-10-16T07:13:37;16.10;99.90
53904;DHT22;39812;52.430;16.936;2022-10-16T07:18:33;16.10;99.90
53904;DHT22;39812;52.430;16.936;2022-10-16T07:21:06;16.10;99.90
53904;DHT22;39812;52.430;16.936;2022-10-16T07:23:32;16.10;99.90
53904;DHT22;39812;52.430;16.936;2022-10-16T07:25:57;16.20;99.90
53904;DHT22;39812;52.430;16.936;2022-10-16T07:28:23;16.40;99.90
53904;DHT22;39812;52.430;16.936;2022-10-16T07:30:48;16.40;99.90
53904;DHT22;39812;52.430;16.936;2022-10-16T07:33:14;16.30;99.90
53904;DHT22;39812;52.430;16.936;2022-10-16T07:35:53;16.40;99.90
53904;DHT22;39812;52.430;16.936;2022-10-16T07:38:19;16.40;99.90
53904;DHT22;39812;52.430;16.936;2022-10-16T07:40:45;16.40;99.90
53904;DHT22;39812;52.430;16.936;2022-10-16T07:43:11;16.40;99.90
53904;DHT22;39812;52.430;16.936;2022-10-16T07:45:36;16.40;99.90
53904;DHT22;39812;52.430;16.936;2022-10-16T07:48:02;16.50;99.90
53904;DHT22;39812;52.430;16.936;2022-10-16T07:50:28;16.50;99.90
53904;DHT22;39812;52.430;16.936;2022-10-16T07:52:53;16.50;99.90
53904;DHT22;39812;52.430;16.936;2022-10-16T07:55:18;16.50;99.90
53904;DHT22;39812;52.430;16.936;2022-10-16T07:57:44;16.60;99.90
53904;DHT22;39812;52.430;16.936;2022-10-16T08:00:10;16.50;99.90
53904;DHT22;39812;52.430;16.936;2022-10-16T08:02:42;16.50;99.90
53904;DHT22;39812;52.430;16.936;2022-10-16T08:05:08;16.50;99.90
53904;DHT22;39812;52.430;16.936;2022-10-16T08:07:33;16.50;99.90
53904;DHT22;39812;52.430;16.936;2022-10-16T08:09:59;16.50;99.90
53904;DHT22;39812;52.430;16.936;2022-10-16T08:12:25;16.50;99.90
53904;DHT22;39812;52.430;16.936;2022-10-16T08:14:51;16.60;99.90
53904;DHT22;39812;52.430;16.936;2022-10-16T08:17:16;16.60;99.90
53904;DHT22;39812;52.430;16.936;2022-10-16T08:19:46;16.90;99.90
53904;DHT22;39812;52.430;16.936;2022-10-16T08:22:12;17.10;99.90
53904;DHT22;39812;52.430;16.936;2022-10-16T08:24:37;17.30;99.90
53904;DHT22;39812;52.430;16.936;2022-10-16T08:27:03;17.30;99.90
53904;DHT22;39812;52.430;16.936;2022-10-16T08:29:29;17.30;99.90
53904;DHT22;39812;52.430;16.936;2022-10-16T08:31:54;17.30;99.90
53904;DHT22;39812;52.430;16.936;2022-10-16T08:34:20;17.30;99.90
53904;DHT22;39812;52.430;16.936;2022-10-16T08:36:46;17.40;99.90
53904;DHT22;39812;52.430;16.936;2022-10-16T08:39:11;17.50;99.90
53904;DHT22;39812;52.430;16.936;2022-10-16T08:41:59;17.40;99.90
53904;DHT22;39812;52.430;16.936;2022-10-16T08:47:22;17.30;99.90
53904;DHT22;39812;52.430;16.936;2022-10-16T08:49:56;17.40;99.90
53904;DHT22;39812;52.430;16.936;2022-10-16T08:52:27;17.50;99.90
53904;DHT22;39812;52.430;16.936;2022-10-16T08:54:55;17.70;99.90
53904;DHT22;39812;52.430;16.936;2022-10-16T08:57:22;18.30;99.90
53904;DHT22;39812;52.430;16.936;2022-10-16T08:59:48;18.40;99.90
53904;DHT22;39812;52.430;16.936;2022-10-16T09:05:17;18.70;99.90
53904;DHT22;39812;52.430;16.936;2022-10-16T09:13:28;18.80;99.90
53904;DHT22;39812;52.430;16.936;2022-10-16T09:16:17;18.80;99.90
53904;DHT22;39812;52.430;16.936;2022-10-16T09:21:23;18.80;99.90
53904;DHT22;39812;52.430;16.936;2022-10-16T09:23:49;18.70;99.90
53904;DHT22;39812;52.430;16.936;2022-10-16T09:26:17;19.00;99.90
53904;DHT22;39812;52.430;16.936;2022-10-16T09:28:44;19.10;99.90
53904;DHT22;39812;52.430;16.936;2022-10-16T09:31:18;19.20;99.90
53904;DHT22;39812;52.430;16.936;2022-10-16T09:33:46;19.10;99.90
53904;DHT22;39812;52.430;16.936;2022-10-16T09:36:13;18.70;99.90
53904;DHT22;39812;52.430;16.936;2022-10-16T09:38:39;18.40;99.90
53904;DHT22;39812;52.430;16.936;2022-10-16T09:43:52;18.30;99.90
53904;DHT22;39812;52.430;16.936;2022-10-16T09:46:31;18.20;99.90
53904;DHT22;39812;52.430;16.936;2022-10-16T09:49:16;18.30;99.90
53904;DHT22;39812;52.430;16.936;2022-10-16T09:51:43;18.40;99.90
53904;DHT22;39812;52.430;16.936;2022-10-16T09:56:36;19.10;99.90
53904;DHT22;39812;52.430;16.936;2022-10-16T09:59:16;19.30;99.90
53904;DHT22;39812;52.430;16.936;2022-10-16T10:01:49;19.50;99.90
53904;DHT22;39812;52.430;16.936;2022-10-16T10:04:16;19.90;99.90
53904;DHT22;39812;52.430;16.936;2022-10-16T10:09:36;19.80;99.90
53904;DHT22;39812;52.430;16.936;2022-10-16T10:12:16;19.90;99.90
53904;DHT22;39812;52.430;16.936;2022-10-16T10:14:48;19.80;99.90
53904;DHT22;39812;52.430;16.936;2022-10-16T10:17:16;19.60;99.90
53904;DHT22;39812;52.430;16.936;2022-10-16T10:30:15;19.50;99.90
53904;DHT22;39812;52.430;16.936;2022-10-16T10:32:47;19.60;99.90
53904;DHT22;39812;52.430;16.936;2022-10-16T10:35:22;19.80;99.90
53904;DHT22;39812;52.430;16.936;2022-10-16T10:41:11;20.70;99.90
53904;DHT22;39812;52.430;16.936;2022-10-16T10:43:55;21.10;99.90
53904;DHT22;39812;52.430;16.936;2022-10-16T10:46:34;21.30;99.90
53904;DHT22;39812;52.430;16.936;2022-10-16T10:55:03;21.00;99.90
53904;DHT22;39812;52.430;16.936;2022-10-16T10:57:56;21.00;99.90
53904;DHT22;39812;52.430;16.936;2022-10-16T11:01:13;20.80;99.90
53904;DHT22;39812;52.430;16.936;2022-10-16T11:06:33;20.10;99.90
53904;DHT22;39812;52.430;16.936;2022-10-16T11:09:20;19.90;99.90
53904;DHT22;39812;52.430;16.936;2022-10-16T11:11:59;19.90;99.90
53904;DHT22;39812;52.430;16.936;2022-10-16T11:14:39;20.10;99.90
53904;DHT22;39812;52.430;16.936;2022-10-16T11:17:30;20.40;99.90
53904;DHT22;39812;52.430;16.936;2022-10-16T11:19:58;20.80;99.90
53904;DHT22;39812;52.430;16.936;2022-10-16T11:22:33;21.20;99.90
53904;DHT22;39812;52.430;16.936;2022-10-16T11:25:04;21.50;99.90
53904;DHT22;39812;52.430;16.936;2022-10-16T11:27:42;21.90;99.90
53904;DHT22;39812;52.430;16.936;2022-10-16T11:30:49;21.60;99.90
53904;DHT22;39812;52.430;16.936;2022-10-16T11:38:51;22.60;99.90
53904;DHT22;39812;52.430;16.936;2022-10-16T11:41:36;22.80;99.90
53904;DHT22;39812;52.430;16.936;2022-10-16T11:44:31;22.50;99.90
53904;DHT22;39812;52.430;16.936;2022-10-16T11:50:26;22.20;99.90
53904;DHT22;39812;52.430;16.936;2022-10-16T11:55:39;22.10;99.90
53904;DHT22;39812;52.430;16.936;2022-10-16T12:01:02;22.00;99.90
53904;DHT22;39812;52.430;16.936;2022-10-16T12:03:59;22.00;99.90
53904;DHT22;39812;52.430;16.936;2022-10-16T12:06:30;21.80;99.90
53904;DHT22;39812;52.430;16.936;2022-10-16T12:08:58;21.60;99.90
53904;DHT22;39812;52.430;16.936;2022-10-16T12:11:37;21.80;99.90
53904;DHT22;39812;52.430;16.936;2022-10-16T12:16:51;21.90;99.90
53904;DHT22;39812;52.430;16.936;2022-10-16T12:19:19;22.10;99.90
53904;DHT22;39812;52.430;16.936;2022-10-16T12:21:45;22.10;99.90
53904;DHT22;39812;52.430;16.936;2022-10-16T12:26:57;21.80;99.90
53904;DHT22;39812;52.430;16.936;2022-10-16T12:29:32;21.70;99.90
53904;DHT22;39812;52.430;16.936;2022-10-16T12:31:58;21.20;99.90
53904;DHT22;39812;52.430;16.936;2022-10-16T12:34:42;21.00;99.90
53904;DHT22;39812;52.430;16.936;2022-10-16T12:37:18;21.00;99.90
53904;DHT22;39812;52.430;16.936;2022-10-16T12:39:45;21.00;99.90
53904;DHT22;39812;52.430;16.936;2022-10-16T12:44:51;21.20;99.90
53904;DHT22;39812;52.430;16.936;2022-10-16T12:49:58;21.70;99.90
53904;DHT22;39812;52.430;16.936;2022-10-16T12:54:56;22.10;99.90
53904;DHT22;39812;52.430;16.936;2022-10-16T12:58:31;24.80;99.90
53904;DHT22;39812;52.430;16.936;2022-10-16T13:00:36;25.30;96.50
53904;DHT22;39812;52.430;16.936;2022-10-16T13:03:43;25.70;94.70
53904;DHT22;39812;52.430;16.936;2022-10-16T13:06:37;24.70;94.60
53904;DHT22;39812;52.430;16.936;2022-10-16T13:09:17;24.00;95.70
53904;DHT22;39812;52.430;16.936;2022-10-16T13:12:12;22.90;97.30
53904;DHT22;39812;52.430;16.936;2022-10-16T13:15:11;22.20;98.70
53904;DHT22;39812;52.430;16.936;2022-10-16T13:20:31;21.10;99.90
53904;DHT22;39812;52.430;16.936;2022-10-16T13:23:18;21.10;99.90
53904;DHT22;39812;52.430;16.936;2022-10-16T13:26:11;21.30;99.90
53904;DHT22;39812;52.430;16.936;2022-10-16T13:28:39;21.20;99.90
53904;DHT22;39812;52.430;16.936;2022-10-16T13:31:05;21.40;99.90
53904;DHT22;39812;52.430;16.936;2022-10-16T13:33:38;23.00;99.90
53904;DHT22;39812;52.430;16.936;2022-10-16T13:36:05;23.60;98.10
53904;DHT22;39812;52.430;16.936;2022-10-16T13:38:33;23.00;98.40
53904;DHT22;39812;52.430;16.936;2022-10-16T13:41:03;22.50;99.00
53904;DHT22;39812;52.430;16.936;2022-10-16T13:43:50;22.00;99.90
53904;DHT22;39812;52.430;16.936;2022-10-16T13:46:19;22.00;99.90
53904;DHT22;39812;52.430;16.936;2022-10-16T13:49:02;23.70;98.80
53904;DHT22;39812;52.430;16.936;2022-10-16T13:51:28;23.20;98.30
53904;DHT22;39812;52.430;16.936;2022-10-16T13:53:56;22.80;98.90
53904;DHT22;39812;52.430;16.936;2022-10-16T13:56:25;22.50;99.50
53904;DHT22;39812;52.430;16.936;2022-10-16T13:58:59;22.10;99.90
53904;DHT22;39812;52.430;16.936;2022-10-16T14:01:28;21.90;99.90
53904;DHT22;39812;52.430;16.936;2022-10-16T14:04:04;21.80;99.90
53904;DHT22;39812;52.430;16.936;2022-10-16T14:06:30;21.60;99.90
53904;DHT22;39812;52.430;16.936;2022-10-16T14:09:07;21.40;99.90
53904;DHT22;39812;52.430;16.936;2022-10-16T14:11:45;21.30;99.90
53904;DHT22;39812;52.430;16.936;2022-10-16T14:14:12;21.10;99.90
53904;DHT22;39812;52.430;16.936;2022-10-16T14:16:41;20.90;99.90
53904;DHT22;39812;52.430;16.936;2022-10-16T14:21:41;21.80;99.90
53904;DHT22;39812;52.430;16.936;2022-10-16T14:24:14;21.60;99.90
53904;DHT22;39812;52.430;16.936;2022-10-16T14:26:47;21.40;99.90
53904;DHT22;39812;52.430;16.936;2022-10-16T14:29:17;21.10;99.90
53904;DHT22;39812;52.430;16.936;2022-10-16T14:31:55;21.00;99.90
53904;DHT22;39812;52.430;16.936;2022-10-16T14:34:35;20.90;99.90
53904;DHT22;39812;52.430;16.936;2022-10-16T14:37:08;20.90;99.90
53904;DHT22;39812;52.430;16.936;2022-10-16T14:39:35;20.80;99.90
53904;DHT22;39812;52.430;16.936;2022-10-16T14:42:00;20.80;99.90
53904;DHT22;39812;52.430;16.936;2022-10-16T14:44:29;20.80;99.90
53904;DHT22;39812;52.430;16.936;2022-10-16T14:46:56;20.80;99.90
53904;DHT22;39812;52.430;16.936;2022-10-16T14:49:23;20.70;99.90
53904;DHT22;39812;52.430;16.936;2022-10-16T14:51:49;20.70;99.90
53904;DHT22;39812;52.430;16.936;2022-10-16T14:54:16;20.60;99.90
53904;DHT22;39812;52.430;16.936;2022-10-16T14:56:52;20.50;99.90
53904;DHT22;39812;52.430;16.936;2022-10-16T14:59:39;20.50;99.90
53904;DHT22;39812;52.430;16.936;2022-10-16T15:02:32;20.40;99.90
53904;DHT22;39812;52.430;16.936;2022-10-16T15:05:26;20.40;99.90
53904;DHT22;39812;52.430;16.936;2022-10-16T15:07:53;21.70;99.90
53904;DHT22;39812;52.430;16.936;2022-10-16T15:10:21;22.10;99.90
53904;DHT22;39812;52.430;16.936;2022-10-16T15:12:47;22.90;99.00
53904;DHT22;39812;52.430;16.936;2022-10-16T15:17:50;24.30;96.20
53904;DHT22;39812;52.430;16.936;2022-10-16T15:20:19;24.20;95.90
53904;DHT22;39812;52.430;16.936;2022-10-16T15:22:44;24.20;95.90
53904;DHT22;39812;52.430;16.936;2022-10-16T15:25:29;24.10;95.90
53904;DHT22;39812;52.430;16.936;2022-10-16T15:27:55;23.80;95.90
53904;DHT22;39812;52.430;16.936;2022-10-16T15:30:20;23.60;96.40
53904;DHT22;39812;52.430;16.936;2022-10-16T15:32:46;23.30;96.80
53904;DHT22;39812;52.430;16.936;2022-10-16T15:35:11;23.00;97.20
53904;DHT22;39812;52.430;16.936;2022-10-16T15:37:37;22.70;97.60
53904;DHT22;39812;52.430;16.936;2022-10-16T15:40:03;21.90;98.40
53904;DHT22;39812;52.430;16.936;2022-10-16T15:42:28;21.10;99.60
53904;DHT22;39812;52.430;16.936;2022-10-16T15:44:54;20.40;99.90
53904;DHT22;39812;52.430;16.936;2022-10-16T15:47:19;19.90;99.90
53904;DHT22;39812;52.430;16.936;2022-10-16T15:49:45;19.50;99.90
53904;DHT22;39812;52.430;16.936;2022-10-16T15:52:11;19.10;99.90
53904;DHT22;39812;52.430;16.936;2022-10-16T15:54:36;18.90;99.90
53904;DHT22;39812;52.430;16.936;2022-10-16T15:57:02;18.70;99.90
53904;DHT22;39812;52.430;16.936;2022-10-16T15:59:27;18.60;99.90
53904;DHT22;39812;52.430;16.936;2022-10-16T16:01:53;18.40;99.90
53904;DHT22;39812;52.430;16.936;2022-10-16T16:04:18;18.30;99.90
53904;DHT22;39812;52.430;16.936;2022-10-16T16:06:44;18.20;99.90
53904;DHT22;39812;52.430;16.936;2022-10-16T16:09:10;18.00;99.90
53904;DHT22;39812;52.430;16.936;2022-10-16T16:11:36;18.00;99.90
53904;DHT22;39812;52.430;16.936;2022-10-16T16:14:07;17.90;99.90
53904;DHT22;39812;52.430;16.936;2022-10-16T16:16:33;17.80;99.90
53904;DHT22;39812;52.430;16.936;2022-10-16T16:19:04;17.70;99.90
53904;DHT22;39812;52.430;16.936;2022-10-16T16:21:31;17.70;99.90
53904;DHT22;39812;52.430;16.936;2022-10-16T16:23:57;17.70;99.90
53904;DHT22;39812;52.430;16.936;2022-10-16T16:26:27;17.60;99.90
53904;DHT22;39812;52.430;16.936;2022-10-16T16:28:57;17.60;99.90
53904;DHT22;39812;52.430;16.936;2022-10-16T16:31:24;17.60;99.90
53904;DHT22;39812;52.430;16.936;2022-10-16T16:33:50;17.50;99.90
53904;DHT22;39812;52.430;16.936;2022-10-16T16:36:17;17.50;99.90
53904;DHT22;39812;52.430;16.936;2022-10-16T16:38:43;17.40;99.90
53904;DHT22;39812;52.430;16.936;2022-10-16T16:41:18;17.40;99.90
53904;DHT22;39812;52.430;16.936;2022-10-16T16:43:44;17.40;99.90
53904;DHT22;39812;52.430;16.936;2022-10-16T16:46:10;17.40;99.90
53904;DHT22;39812;52.430;16.936;2022-10-16T16:48:37;17.40;99.90
53904;DHT22;39812;52.430;16.936;2022-10-16T16:51:13;17.40;99.90
53904;DHT22;39812;52.430;16.936;2022-10-16T16:53:42;17.30;99.90
53904;DHT22;39812;52.430;16.936;2022-10-16T16:56:08;17.30;99.90
53904;DHT22;39812;52.430;16.936;2022-10-16T16:58:33;17.30;99.90
53904;DHT22;39812;52.430;16.936;2022-10-16T17:01:00;17.30;99.90
53904;DHT22;39812;52.430;16.936;2022-10-16T17:03:28;17.20;99.90
53904;DHT22;39812;52.430;16.936;2022-10-16T17:06:02;17.10;99.90